createdAt,value
2022-12-14T05:40:46.787Z,101261.23
2022-12-14T05:41:48.579Z,101268.09
2022-12-14T05:42:55.495Z,101263.80
2022-12-14T05:43:54.057Z,101264.70
2022-12-14T05:44:55.909Z,101268.09
2022-12-14T05:45:57.803Z,101268.81
2022-12-14T05:46:59.854Z,101272.29
2022-12-14T05:48:01.654Z,101272.22
2022-12-14T05:49:03.531Z,101277.37
2022-12-14T05:50:05.432Z,101272.15
2022-12-14T05:51:07.274Z,101281.55
2022-12-14T05:52:09.064Z,101281.47
2022-12-14T05:53:10.895Z,101284.05
2022-12-14T05:54:12.695Z,101283.17
2022-12-14T05:55:14.500Z,101280.60
2022-12-14T05:56:17.371Z,101288.33
2022-12-14T05:57:19.159Z,101296.05
2022-12-14T05:58:20.976Z,101293.41
2022-12-14T05:59:22.781Z,101302.80
2022-12-14T06:00:24.875Z,101304.50
2022-12-14T06:01:26.766Z,101302.66
2022-12-14T06:02:28.703Z,101306.93
2022-12-14T06:03:30.741Z,101312.88
2022-12-14T06:04:32.775Z,101311.13
2022-12-14T06:05:34.719Z,101314.50
2022-12-14T06:06:36.742Z,101321.28
2022-12-14T06:07:38.534Z,101322.16
2022-12-14T06:10:00.018Z,101316.06
2022-12-14T06:11:01.835Z,101319.36
2022-12-14T06:12:03.711Z,101316.86
2022-12-14T06:13:05.519Z,101322.88
2022-12-14T06:14:07.487Z,101315.98
2022-12-14T06:15:09.298Z,101324.58
2022-12-14T06:16:11.527Z,101329.66
2022-12-14T06:17:13.477Z,101323.64
2022-12-14T06:18:15.248Z,101325.30
2022-12-14T06:19:17.071Z,101332.16
2022-12-14T06:20:18.883Z,101330.45
2022-12-14T06:21:20.672Z,101335.53
2022-12-14T06:22:24.592Z,101335.45
2022-12-14T06:23:26.778Z,101337.08
2022-12-14T06:24:28.883Z,101342.16
2022-12-14T06:25:30.803Z,101338.53
2022-12-14T06:26:32.791Z,101346.32
2022-12-14T06:27:34.637Z,101348.82
2022-12-14T06:28:36.441Z,101357.45
2022-12-14T06:29:38.491Z,101358.24
2022-12-14T06:30:40.413Z,101354.80
2022-12-14T06:31:42.445Z,101352.30
2022-12-14T06:32:44.305Z,101358.24
2022-12-14T06:33:46.108Z,101366.04
2022-12-14T06:34:47.924Z,101362.67
2022-12-14T06:35:49.727Z,101361.84
2022-12-14T06:36:51.527Z,101375.46
2022-12-14T06:37:53.371Z,101376.33
2022-12-14T06:38:55.372Z,101379.86
2022-12-14T06:39:57.184Z,101377.28
2022-12-14T06:40:59.071Z,101378.03
2022-12-14T06:42:00.877Z,101378.91
2022-12-14T06:43:02.717Z,101385.83
2022-12-14T06:44:04.569Z,101389.20
2022-12-14T06:45:06.527Z,101385.68
2022-12-14T06:46:13.147Z,101390.75
2022-12-14T06:48:18.640Z,101394.98
2022-12-14T06:49:20.441Z,101381.17
2022-12-14T06:50:22.367Z,101389.77
2022-12-14T06:51:24.168Z,101389.69
2022-12-14T06:52:27.171Z,101388.02
2022-12-14T06:53:30.963Z,101388.97
2022-12-14T06:54:32.969Z,101392.42
2022-12-14T06:55:34.748Z,101394.12
2022-12-14T06:56:36.651Z,101396.69
2022-12-14T06:57:38.455Z,101403.54
2022-12-14T06:58:40.299Z,101406.11
2022-12-14T06:59:42.096Z,101402.71
2022-12-14T07:00:43.905Z,101402.71
2022-12-14T07:01:45.985Z,101407.86
2022-12-14T07:02:49.682Z,101408.61
2022-12-14T07:03:51.831Z,101414.70
2022-12-14T07:04:53.631Z,101416.41
2022-12-14T07:05:55.446Z,101418.08
2022-12-14T07:06:57.281Z,101411.27
2022-12-14T07:07:59.084Z,101418.98
2022-12-14T07:09:00.921Z,101413.76
2022-12-14T07:10:02.731Z,101419.77
2022-12-14T07:11:04.520Z,101426.70
2022-12-14T07:12:06.332Z,101417.28
2022-12-14T07:13:08.210Z,101421.62
2022-12-14T07:14:10.069Z,101424.28
2022-12-14T07:15:11.869Z,101426.10
2022-12-14T07:16:14.332Z,101424.43
2022-12-14T07:17:16.716Z,101431.44
2022-12-14T07:18:18.520Z,101436.73
2022-12-14T07:19:20.362Z,101439.31
2022-12-14T07:20:22.375Z,101438.48
2022-12-14T07:21:24.187Z,101440.18
2022-12-14T07:22:26.016Z,101443.55
2022-12-14T07:23:30.449Z,101451.20
2022-12-14T07:24:32.595Z,101447.75
2022-12-14T07:25:34.380Z,101449.34
2022-12-14T07:26:36.275Z,101454.48
2022-12-14T07:27:38.144Z,101454.41
2022-12-14T07:28:39.959Z,101451.84
2022-12-14T07:29:41.805Z,101456.98
2022-12-14T07:30:43.949Z,101456.11
2022-12-14T07:31:49.354Z,101457.81
2022-12-14T07:32:49.663Z,101456.91
2022-12-14T07:33:51.819Z,101457.73
2022-12-14T07:34:53.917Z,101465.45
2022-12-14T07:35:55.679Z,101473.17
2022-12-14T07:36:57.492Z,101466.33
2022-12-14T07:37:59.315Z,101464.70
2022-12-14T07:39:01.102Z,101467.36
2022-12-14T07:40:02.961Z,101474.36
2022-12-14T07:41:04.769Z,101468.34
2022-12-14T07:42:06.591Z,101470.84
2022-12-14T07:43:08.393Z,101465.69
2022-12-14T07:44:10.208Z,101469.92
2022-12-14T07:45:12.053Z,101469.92
2022-12-14T07:46:14.213Z,101477.65
2022-12-14T07:47:16.792Z,101475.08
2022-12-14T07:48:18.871Z,101482.00
2022-12-14T07:49:20.754Z,101487.15
2022-12-14T07:50:22.611Z,101483.63
2022-12-14T07:51:24.407Z,101485.38
2022-12-14T07:52:26.198Z,101487.95
2022-12-14T07:53:28.347Z,101485.38
2022-12-14T07:54:30.534Z,101482.72
2022-12-14T07:55:32.405Z,101481.92
2022-12-14T07:56:34.277Z,101481.92
2022-12-14T07:57:38.173Z,101482.00
2022-12-14T07:58:39.913Z,101481.20
2022-12-14T07:59:41.739Z,101483.70
2022-12-14T08:00:43.903Z,101482.00
2022-12-14T08:01:45.916Z,101490.63
2022-12-14T08:02:47.919Z,101497.52
2022-12-14T08:03:49.682Z,101488.13
2022-12-14T08:04:51.537Z,101497.59
2022-12-14T08:05:53.366Z,101491.50
2022-12-14T08:06:55.426Z,101501.56
2022-12-14T08:07:57.249Z,101504.06
2022-12-14T08:08:59.085Z,101499.55
2022-12-14T08:10:00.903Z,101503.73
2022-12-14T08:11:02.864Z,101506.47
2022-12-14T08:12:04.610Z,101505.56
2022-12-14T08:13:06.408Z,101507.42
2022-12-14T08:14:08.247Z,101513.52
2022-12-14T08:15:10.010Z,101507.58
2022-12-14T08:16:12.394Z,101507.73
2022-12-14T08:17:14.176Z,101505.24
2022-12-14T08:18:16.378Z,101510.63
2022-12-14T08:19:18.203Z,101509.03
2022-12-14T08:20:20.136Z,101510.78
2022-12-14T08:21:22.013Z,101506.62
2022-12-14T08:22:23.808Z,101507.56
2022-12-14T08:23:25.639Z,101511.02
2022-12-14T08:24:27.419Z,101509.42
2022-12-14T08:25:29.241Z,101509.50
2022-12-14T08:26:35.545Z,101518.09
2022-12-14T08:27:35.057Z,101507.80
2022-12-14T08:28:36.890Z,101512.16
2022-12-14T08:29:38.698Z,101524.20
2022-12-14T08:30:40.669Z,101513.90
2022-12-14T08:31:42.612Z,101513.98
2022-12-14T08:32:44.358Z,101512.30
2022-12-14T08:33:46.258Z,101517.61
2022-12-14T08:34:48.045Z,101520.34
2022-12-14T08:35:49.973Z,101521.36
2022-12-14T08:36:51.800Z,101516.38
2022-12-14T08:37:53.584Z,101513.95
2022-12-14T08:38:55.402Z,101514.02
2022-12-14T08:39:57.218Z,101510.73
2022-12-14T08:40:59.332Z,101511.67
2022-12-14T08:42:01.183Z,101506.52
2022-12-14T08:43:02.996Z,101513.45
2022-12-14T08:44:04.794Z,101510.88
2022-12-14T08:45:06.579Z,101518.60
2022-12-14T08:46:09.343Z,101514.36
2022-12-14T08:47:11.376Z,101516.03
2022-12-14T08:48:13.183Z,101523.91
2022-12-14T10:55:09.013Z,101591.62
2022-12-14T10:56:11.556Z,101603.44
2022-12-14T10:57:13.585Z,101594.62
2022-12-14T10:58:15.399Z,101594.41
2022-12-14T11:00:37.964Z,101600.53
2022-12-14T11:01:39.824Z,101597.66
2022-12-14T11:03:42.995Z,101590.50
2022-12-14T11:04:44.843Z,101599.61
2022-12-14T11:05:46.715Z,101590.50
2022-12-14T11:06:48.550Z,101591.64
2022-12-14T11:07:50.367Z,101593.63
2022-12-14T11:08:52.312Z,101593.06
2022-12-14T11:09:54.147Z,101594.28
2022-12-14T11:10:56.136Z,101595.31
2022-12-14T11:11:58.366Z,101592.02
2022-12-14T11:13:00.529Z,101593.76
2022-12-14T11:14:02.361Z,101600.84
2022-12-14T11:15:06.215Z,101599.14
2022-12-14T11:16:08.643Z,101593.34
2022-12-14T11:17:10.665Z,101595.05
2022-12-14T11:18:12.788Z,101593.27
2022-12-14T11:19:14.698Z,101593.27
2022-12-14T11:20:16.510Z,101593.27
2022-12-14T11:21:18.363Z,101595.84
2022-12-14T11:22:22.461Z,101598.50
2022-12-14T11:23:23.895Z,101601.16
2022-12-14T11:24:25.830Z,101601.23
2022-12-14T11:25:27.658Z,101606.46
2022-12-14T11:26:29.648Z,101598.80
2022-12-14T11:27:31.475Z,101602.11
2022-12-14T11:28:37.476Z,101602.03
2022-12-14T11:29:36.927Z,101602.94
2022-12-14T11:30:39.208Z,101610.73
2022-12-14T11:31:41.027Z,101610.59
2022-12-14T11:32:42.842Z,101602.63
2022-12-14T11:33:44.658Z,101605.20
2022-12-14T11:34:48.308Z,101605.20
2022-12-14T11:35:50.136Z,101606.08
2022-12-14T11:36:52.015Z,101607.86
2022-12-14T11:37:53.829Z,101609.60
2022-12-14T11:38:55.651Z,101615.59
2022-12-14T11:39:57.501Z,101619.75
2022-12-14T11:40:59.423Z,101616.30
2022-12-14T11:42:01.367Z,101616.30
2022-12-14T11:43:03.182Z,101617.09
2022-12-14T11:44:05.040Z,101617.92
2022-12-14T11:45:06.860Z,101617.02
2022-12-14T11:46:09.413Z,101607.55
2022-12-14T11:47:11.281Z,101617.09
2022-12-14T11:48:13.088Z,101622.25
2022-12-14T11:49:14.910Z,101616.15
2022-12-14T11:50:16.767Z,101624.67
2022-12-14T11:51:18.574Z,101624.75
2022-12-14T11:52:20.463Z,101625.73
2022-12-14T11:53:22.404Z,101624.98
2022-12-14T11:54:24.247Z,101621.69
2022-12-14T11:55:27.222Z,101621.84
2022-12-14T11:56:29.317Z,101626.13
2022-12-14T11:57:31.328Z,101623.63
2022-12-14T11:58:33.643Z,101622.00
2022-12-14T11:59:35.795Z,101627.15
2022-12-14T12:00:41.327Z,101620.14
2022-12-14T12:04:12.837Z,101630.73
2022-12-14T12:05:14.698Z,101636.60
2022-12-14T12:06:16.943Z,101638.30
2022-12-14T12:07:18.784Z,101639.97
2022-12-14T12:08:20.685Z,101639.97
2022-12-14T12:09:22.568Z,101635.80
2022-12-14T12:10:24.759Z,101638.38
2022-12-14T12:11:26.590Z,101639.25
2022-12-14T12:12:28.415Z,101640.20
2022-12-14T12:13:30.439Z,101648.92
2022-12-14T12:14:32.231Z,101656.73
2022-12-14T12:15:34.330Z,101658.47
2022-12-14T12:16:36.392Z,101661.13
2022-12-14T12:17:38.190Z,101665.48
2022-12-14T12:18:46.013Z,101655.18
2022-12-14T12:19:43.716Z,101656.96
2022-12-14T12:20:45.539Z,101669.02
2022-12-14T12:21:49.192Z,101658.78
2022-12-14T12:22:51.006Z,101657.98
2022-12-14T12:23:52.858Z,101660.56
2022-12-14T12:25:16.665Z,101664.77
2022-12-14T12:25:58.326Z,101657.75
2022-12-14T12:27:00.347Z,101657.68
2022-12-14T12:28:02.166Z,101661.05
2022-12-14T12:29:04.074Z,101660.97
2022-12-14T12:30:06.485Z,101657.60
2022-12-14T12:31:10.913Z,101655.98
2022-12-14T12:32:12.008Z,101655.98
2022-12-14T12:33:13.834Z,101654.38
2022-12-14T12:34:15.694Z,101654.38
2022-12-14T12:35:17.605Z,101653.55
2022-12-14T12:36:23.780Z,101656.05
2022-12-14T12:37:27.456Z,101659.38
2022-12-14T12:38:27.055Z,101665.97
2022-12-14T12:39:29.567Z,101665.02
2022-12-14T12:40:31.532Z,101676.86
2022-12-14T12:41:33.360Z,101679.28
2022-12-14T12:42:35.174Z,101675.80
2022-12-14T12:43:37.011Z,101681.94
2022-12-14T12:44:39.468Z,101682.02
2022-12-14T12:45:41.289Z,101685.55
2022-12-14T12:47:06.820Z,101688.28
2022-12-14T12:48:52.056Z,101695.37
2022-12-14T12:49:53.896Z,101696.24
2022-12-14T12:50:55.823Z,101682.48
2022-12-14T12:51:57.664Z,101691.97
2022-12-14T12:53:03.520Z,101691.02
2022-12-14T12:54:03.272Z,101691.02
2022-12-14T12:55:05.181Z,101697.12
2022-12-14T12:56:07.143Z,101703.97
2022-12-14T12:57:08.976Z,101700.52
2022-12-14T12:58:10.798Z,101705.75
2022-12-14T12:59:12.595Z,101701.48
2022-12-14T13:00:15.137Z,101700.60
2022-12-14T13:01:17.040Z,101702.27
2022-12-14T13:02:19.290Z,101691.02
2022-12-14T13:03:21.370Z,101697.04
2022-12-14T13:04:23.313Z,101691.89
2022-12-14T13:06:29.045Z,101696.95
2022-12-14T13:07:30.873Z,101701.31
2022-12-14T13:08:33.280Z,101700.36
2022-12-14T13:09:35.316Z,101699.45
2022-12-14T13:10:41.910Z,101711.46
2022-12-14T13:11:40.842Z,101704.61
2022-12-14T13:12:42.670Z,101704.61
2022-12-14T13:13:46.317Z,101701.16
2022-12-14T13:14:50.009Z,101702.86
2022-12-14T13:15:51.930Z,101708.89
2022-12-14T13:16:54.100Z,101705.44
2022-12-14T13:17:55.912Z,101704.61
2022-12-14T13:19:08.715Z,101706.39
2022-12-14T13:20:01.588Z,101715.07
2022-12-14T13:21:03.636Z,101716.85
2022-12-14T13:22:07.959Z,101712.50
2022-12-14T13:23:43.098Z,101718.48
2022-12-14T13:24:13.191Z,101714.20
2022-12-14T13:25:15.040Z,101708.25
2022-12-14T13:26:48.596Z,101706.47
2022-12-14T13:27:21.168Z,101722.80
2022-12-14T13:28:22.967Z,101722.72
2022-12-14T13:29:24.776Z,101723.55
2022-12-14T13:30:26.950Z,101725.22
2022-12-14T13:31:29.199Z,101726.84
2022-12-14T13:32:36.922Z,101729.41
2022-12-14T13:33:34.723Z,101731.12
2022-12-14T13:34:36.548Z,101735.44
2022-12-14T13:35:38.384Z,101729.34
2022-12-14T13:36:40.362Z,101730.12
2022-12-14T13:37:42.201Z,101730.12
2022-12-14T13:38:44.016Z,101731.83
2022-12-14T13:39:45.864Z,101730.05
2022-12-14T13:40:49.504Z,101721.45
2022-12-14T13:41:51.387Z,101724.89
2022-12-14T13:42:53.201Z,101725.80
2022-12-14T13:43:55.025Z,101728.37
2022-12-14T13:44:56.870Z,101730.05
2022-12-14T13:45:58.680Z,101729.17
2022-12-14T13:47:00.869Z,101736.90
2022-12-14T13:48:02.831Z,101737.69
2022-12-14T13:49:04.699Z,101738.60
2022-12-14T13:51:10.408Z,101732.55
2022-12-14T13:52:12.292Z,101742.84
2022-12-14T13:53:14.120Z,101748.83
2022-12-14T13:54:15.973Z,101747.91
2022-12-14T13:55:17.792Z,101743.59
2022-12-14T13:56:19.630Z,101747.84
2022-12-14T13:57:22.134Z,101743.59
2022-12-14T13:58:23.954Z,101749.53
2022-12-14T13:59:25.895Z,101746.05
2022-12-14T14:00:27.732Z,101748.63
2022-12-14T14:01:29.572Z,101751.13
2022-12-14T14:02:31.618Z,101759.67
2022-12-14T14:03:33.577Z,101752.74
2022-12-14T14:04:35.519Z,101753.53
2022-12-14T14:05:37.355Z,101744.84
2022-12-14T14:06:39.587Z,101737.75
2022-12-14T14:07:41.461Z,101748.22
2022-12-14T14:08:44.157Z,101743.89
2022-12-14T14:09:46.290Z,101745.56
2022-12-14T14:10:54.085Z,101750.71
2022-12-14T14:11:51.871Z,101748.96
2022-12-14T14:12:53.747Z,101750.62
2022-12-14T14:13:55.571Z,101758.35
2022-12-14T14:14:57.402Z,101758.27
2022-12-14T14:16:29.443Z,101752.25
2022-12-14T14:17:02.900Z,101753.04
2022-12-14T14:18:04.837Z,101752.16
2022-12-14T14:19:06.658Z,101755.53
2022-12-14T14:20:09.793Z,101758.11
2022-12-14T14:21:11.763Z,101755.53
2022-12-14T14:23:14.563Z,101757.94
2022-12-14T14:24:16.393Z,101761.34
2022-12-14T14:25:18.232Z,101768.08
2022-12-14T14:26:20.093Z,101762.84
2022-12-14T14:27:21.925Z,101771.44
2022-12-14T14:28:23.834Z,101768.78
2022-12-14T14:29:25.705Z,101767.03
2022-12-14T14:30:27.712Z,101771.27
2022-12-14T14:31:29.561Z,101772.09
2022-12-14T14:32:31.439Z,101768.61
2022-12-14T14:33:45.280Z,101772.89
2022-12-14T14:34:37.067Z,101770.31
2022-12-14T14:35:38.911Z,101765.95
2022-12-14T14:38:00.904Z,101771.02
2022-12-14T14:39:02.736Z,101770.85
2022-12-14T14:40:18.335Z,101771.67
2022-12-14T14:41:17.322Z,101773.26
2022-12-14T14:42:11.864Z,101765.45
2022-12-14T14:43:13.664Z,101764.58
2022-12-14T14:44:15.512Z,101766.27
2022-12-14T14:45:17.344Z,101764.41
2022-12-14T14:46:23.052Z,101766.98
2022-12-14T14:47:23.336Z,101776.41
2022-12-14T14:48:25.137Z,101766.11
2022-12-14T14:49:27.068Z,101772.92
2022-12-14T14:50:29.091Z,101764.41
2022-12-14T14:51:30.912Z,101769.64
2022-12-14T14:52:32.698Z,101767.15
2022-12-14T14:53:34.523Z,101766.36
2022-12-14T14:55:55.481Z,101769.02
2022-12-14T14:56:44.078Z,101772.38
2022-12-14T14:57:47.867Z,101767.23
2022-12-14T14:58:49.696Z,101772.22
2022-12-14T14:59:52.621Z,101770.34
2022-12-14T15:00:54.472Z,101770.97
2022-12-14T15:01:56.359Z,101775.94
2022-12-14T15:02:58.297Z,101776.59
2022-12-14T15:04:00.315Z,101780.75
2022-12-14T15:06:06.148Z,101776.25
2022-12-14T15:07:07.997Z,101786.63
2022-12-14T15:08:09.897Z,101778.83
2022-12-14T15:09:11.738Z,101778.83
2022-12-14T15:10:19.016Z,101783.06
2022-12-14T15:11:17.443Z,101777.04
2022-12-14T15:12:19.263Z,101781.31
2022-12-14T15:13:21.090Z,101778.66
2022-12-14T15:14:22.945Z,101779.44
2022-12-14T15:15:24.822Z,101780.23
2022-12-14T15:16:27.119Z,101783.63
2022-12-14T15:17:29.004Z,101781.05
2022-12-14T15:18:30.894Z,101784.33
2022-12-14T15:19:32.739Z,101792.84
2022-12-14T15:20:34.753Z,101794.53
2022-12-14T15:21:36.564Z,101791.96
2022-12-14T15:22:38.391Z,101791.88
2022-12-14T15:23:40.227Z,101794.44
2022-12-14T15:24:42.042Z,101792.66
2022-12-14T15:25:43.919Z,101797.72
2022-12-14T15:26:46.077Z,101794.27
2022-12-14T15:27:47.929Z,101798.51
2022-12-14T15:28:49.749Z,101794.97
2022-12-14T15:29:51.574Z,101804.38
2022-12-14T15:30:53.622Z,101806.05
2022-12-14T15:31:59.279Z,101810.32
2022-12-14T15:32:59.123Z,101807.75
2022-12-14T15:34:00.956Z,101806.95
2022-12-14T15:35:02.800Z,101808.70
2022-12-14T15:36:04.769Z,101810.32
2022-12-14T15:37:06.619Z,101807.66
2022-12-14T15:38:08.440Z,101805.09
2022-12-14T15:39:10.263Z,101803.39
2022-12-14T15:40:12.205Z,101800.81
2022-12-14T15:41:14.063Z,101795.67
2022-12-14T15:42:15.881Z,101794.80
2022-12-14T15:43:17.708Z,101806.78
2022-12-14T15:44:19.541Z,101803.30
2022-12-14T15:45:21.387Z,101811.02
2022-12-14T15:46:24.438Z,101814.50
2022-12-14T15:47:26.300Z,101807.57
2022-12-14T15:48:28.123Z,101811.92
2022-12-14T15:49:29.926Z,101816.25
2022-12-14T15:50:31.749Z,101823.09
2022-12-14T15:51:33.731Z,101822.22
2022-12-14T15:52:35.552Z,101827.36
2022-12-14T15:53:37.456Z,101835.08
2022-12-14T15:54:39.271Z,101829.11
2022-12-14T15:55:41.103Z,101827.36
2022-12-14T15:56:43.539Z,101832.50
2022-12-14T15:57:45.363Z,101825.58
2022-12-14T15:58:47.205Z,101825.48
2022-12-14T15:59:49.387Z,101822.04
2022-12-14T16:00:51.320Z,101818.47
2022-12-14T16:01:56.145Z,101820.16
2022-12-14T16:02:56.969Z,101825.22
2022-12-14T16:03:58.937Z,101824.34
2022-12-14T16:05:00.806Z,101824.34
2022-12-14T16:06:02.655Z,101819.98
2022-12-14T16:07:08.492Z,101823.34
2022-12-14T16:08:08.201Z,101822.47
2022-12-14T16:09:10.032Z,101821.56
2022-12-14T16:10:12.066Z,101823.25
2022-12-14T16:11:13.925Z,101834.33
2022-12-14T16:12:15.888Z,101830.09
2022-12-14T16:13:17.694Z,101830.88
2022-12-14T16:14:19.522Z,101823.25
2022-12-14T16:15:21.346Z,101824.05
2022-12-14T16:16:23.349Z,101826.61
2022-12-14T16:17:25.417Z,101823.17
2022-12-14T16:18:27.254Z,101818.72
2022-12-14T16:19:31.587Z,101821.20
2022-12-14T16:20:32.736Z,101824.59
2022-12-14T16:21:34.557Z,101829.73
2022-12-14T16:22:36.503Z,101826.25
2022-12-14T16:23:45.119Z,101827.17
2022-12-14T16:24:41.969Z,101823.78
2022-12-14T16:25:43.791Z,101823.78
2022-12-14T16:26:45.840Z,101834.97
2022-12-14T16:27:50.076Z,101834.06
2022-12-14T16:28:51.351Z,101832.40
2022-12-14T16:29:53.171Z,101832.40
2022-12-14T16:30:55.896Z,101829.83
2022-12-14T16:31:57.767Z,101833.19
2022-12-14T16:32:59.733Z,101835.76
2022-12-14T16:34:01.556Z,101832.22
2022-12-14T16:35:03.380Z,101834.70
2022-12-14T16:36:05.244Z,101839.75
2022-12-14T16:37:31.486Z,101840.63
2022-12-14T16:38:10.828Z,101850.91
2022-12-14T16:39:12.647Z,101845.86
2022-12-14T16:40:16.462Z,101851.00
2022-12-14T16:41:18.233Z,101845.86
2022-12-14T16:42:20.076Z,101846.73
2022-12-14T16:43:21.943Z,101842.41
2022-12-14T16:44:23.758Z,101833.70
2022-12-14T16:45:25.604Z,101830.95
2022-12-14T16:46:27.479Z,101834.34
2022-12-14T16:47:29.354Z,101834.16
2022-12-14T16:48:31.210Z,101825.54
2022-12-14T16:49:33.041Z,101828.89
2022-12-14T16:50:55.569Z,101831.47
2022-12-14T16:52:05.707Z,101838.17
2022-12-14T16:52:42.117Z,101832.16
2022-12-14T16:53:44.110Z,101839.87
2022-12-14T16:54:45.926Z,101835.52
2022-12-14T16:55:49.549Z,101831.16
2022-12-14T16:56:52.383Z,101832.07
2022-12-14T16:57:54.193Z,101825.23
2022-12-14T16:58:56.073Z,101832.95
2022-12-14T16:59:57.877Z,101826.11
2022-12-14T17:00:59.860Z,101822.66
2022-12-14T17:02:01.804Z,101833.82
2022-12-14T17:03:03.998Z,101832.85
2022-12-14T17:04:06.083Z,101832.85
2022-12-14T17:05:07.881Z,101833.73
2022-12-14T17:06:10.093Z,101831.06
2022-12-14T17:07:11.990Z,101841.44
2022-12-14T17:08:13.761Z,101834.64
2022-12-14T17:09:20.030Z,101832.07
2022-12-14T17:10:19.456Z,101837.20
2022-12-14T17:11:21.268Z,101838.88
2022-12-14T17:12:23.089Z,101833.64
2022-12-14T17:13:24.918Z,101838.78
2022-12-14T17:14:26.790Z,101832.77
2022-12-14T17:15:28.596Z,101844.65
2022-12-14T17:16:30.759Z,101845.44
2022-12-14T17:17:32.654Z,101846.22
2022-12-14T17:18:34.530Z,101847.91
2022-12-14T17:19:36.387Z,101849.79
2022-12-14T17:20:38.322Z,101849.79
2022-12-14T17:21:40.128Z,101848.97
2022-12-14T17:22:41.959Z,101846.41
2022-12-14T17:23:43.777Z,101843.83
2022-12-14T17:24:45.769Z,101848.97
2022-12-14T17:25:49.392Z,101846.31
2022-12-14T17:26:51.488Z,101839.51
2022-12-14T17:27:53.278Z,101847.22
2022-12-14T17:28:55.120Z,101843.73
2022-12-14T17:29:57.047Z,101853.23
2022-12-14T17:30:59.147Z,101852.36
2022-12-14T17:32:01.010Z,101854.02
2022-12-14T17:33:02.852Z,101853.92
2022-12-14T17:34:04.693Z,101853.92
2022-12-14T17:35:06.619Z,101852.27
2022-12-14T17:36:08.838Z,101860.77
2022-12-14T17:37:10.708Z,101858.19
2022-12-14T17:38:12.607Z,101863.24
2022-12-14T17:39:14.403Z,101864.03
2022-12-14T17:40:16.479Z,101869.17
2022-12-14T17:41:18.299Z,101872.65
2022-12-14T17:42:20.110Z,101870.86
2022-12-14T17:43:21.958Z,101867.41
2022-12-14T17:44:23.786Z,101875.91
2022-12-14T17:45:25.645Z,101868.98
2022-12-14T17:46:27.555Z,101875.03
2022-12-14T17:47:29.477Z,101876.69
2022-12-14T17:48:31.357Z,101869.80
2022-12-14T17:49:33.292Z,101882.66
2022-12-14T17:50:35.263Z,101874.03
2022-12-14T17:51:37.055Z,101880.08
2022-12-14T17:52:38.889Z,101873.25
2022-12-14T17:53:40.736Z,101880.08
2022-12-14T17:54:42.521Z,101878.20
2022-12-14T17:55:44.586Z,101875.63
2022-12-14T17:56:46.757Z,101879.89
2022-12-14T17:57:48.651Z,101879.80
2022-12-14T17:58:50.546Z,101878.89
2022-12-14T17:59:52.455Z,101889.17
2022-12-14T18:00:54.340Z,101889.17
2022-12-14T18:01:56.352Z,101889.95
2022-12-14T18:02:58.586Z,101897.58
2022-12-14T18:04:00.577Z,101898.30
2022-12-14T18:05:02.473Z,101898.11
2022-12-14T18:06:04.329Z,101898.89
2022-12-14T18:07:06.175Z,101899.58
2022-12-14T18:08:08.087Z,101897.92
2022-12-14T18:09:09.968Z,101897.92
2022-12-14T18:10:12.244Z,101894.53
2022-12-14T18:11:14.327Z,101897.20
2022-12-14T18:12:24.579Z,101896.41
2022-12-14T18:13:19.795Z,101897.38
2022-12-14T18:14:21.607Z,101893.06
2022-12-14T18:15:23.794Z,101887.02
2022-12-14T18:16:28.126Z,101896.41
2022-12-14T18:17:29.524Z,101893.75
2022-12-14T18:18:31.348Z,101889.30
2022-12-14T18:19:33.140Z,101891.77
2022-12-14T18:20:35.161Z,101896.82
2022-12-14T18:21:41.106Z,101894.16
2022-12-14T18:22:43.040Z,101894.97
2022-12-14T18:23:46.710Z,101892.30
2022-12-14T18:24:50.330Z,101898.23
2022-12-14T18:25:52.133Z,101896.44
2022-12-14T18:26:54.544Z,101896.44
2022-12-14T18:27:56.386Z,101893.88
2022-12-14T18:28:58.294Z,101892.21
2022-12-14T18:30:00.163Z,101887.85
2022-12-14T18:31:02.173Z,101891.20
2022-12-14T18:32:04.223Z,101886.06
2022-12-14T18:33:06.127Z,101896.34
2022-12-14T18:34:08.078Z,101889.42
2022-12-14T18:35:09.928Z,101893.59
2022-12-14T18:36:12.113Z,101893.48
2022-12-14T18:37:16.333Z,101890.83
2022-12-14T18:38:17.593Z,101889.13
2022-12-14T18:39:19.395Z,101897.66
2022-12-14T18:40:22.209Z,101896.65
2022-12-14T18:41:24.029Z,101900.03
2022-12-14T18:42:25.969Z,101896.45
2022-12-14T18:43:28.282Z,101904.06
2022-12-14T18:44:30.481Z,101901.41
2022-12-14T18:45:32.398Z,101903.00
2022-12-14T18:46:34.633Z,101903.78
2022-12-14T18:47:43.993Z,101902.02
2022-12-14T18:48:40.381Z,101906.25
2022-12-14T18:49:42.259Z,101901.92
2022-12-14T18:50:44.378Z,101907.06
2022-12-14T18:51:46.296Z,101908.72
2022-12-14T18:52:48.267Z,101907.06
2022-12-14T18:53:50.194Z,101908.72
2022-12-14T18:54:51.988Z,101909.63
2022-12-14T18:55:53.911Z,101911.20
2022-12-14T18:56:56.004Z,101918.90
2022-12-14T18:57:58.012Z,101920.59
2022-12-14T18:58:59.907Z,101916.14
2022-12-14T19:00:01.788Z,101912.50
2022-12-14T19:01:03.697Z,101915.94
2022-12-14T19:02:05.573Z,101910.70
2022-12-14T19:03:10.754Z,101916.72
2022-12-14T19:04:12.802Z,101910.70
2022-12-14T19:05:14.652Z,101907.17
2022-12-14T19:08:44.706Z,101913.67
2022-12-14T19:11:08.572Z,101915.26
2022-12-14T19:12:10.616Z,101906.58
2022-12-14T19:13:12.537Z,101902.23
2022-12-14T19:14:14.580Z,101901.45
2022-12-14T19:15:16.379Z,101898.88
2022-12-14T19:16:18.306Z,101898.98
2022-12-14T19:17:23.004Z,101894.63
2022-12-14T19:18:24.882Z,101900.63
2022-12-14T19:19:34.673Z,101895.40
2022-12-14T19:20:31.143Z,101900.53
2022-12-14T19:21:33.072Z,101897.87
2022-12-14T19:22:34.966Z,101901.34
2022-12-14T19:23:36.889Z,101901.34
2022-12-14T19:24:40.091Z,101896.99
2022-12-14T19:25:42.003Z,101895.20
2022-12-14T19:26:44.039Z,101892.53
2022-12-14T19:28:51.423Z,101890.88
2022-12-14T19:29:53.336Z,101900.44
2022-12-14T19:30:56.238Z,101892.73
2022-12-14T19:32:04.851Z,101890.17
2022-12-14T19:33:01.900Z,101885.94
2022-12-14T19:34:03.849Z,101889.39
2022-12-14T19:35:05.839Z,101891.17
2022-12-14T19:36:07.996Z,101884.16
2022-12-14T19:37:11.613Z,101885.75
2022-12-14T19:38:13.453Z,101886.53
2022-12-14T19:39:15.440Z,101877.81
2022-12-14T19:40:17.432Z,101877.72
2022-12-14T19:41:21.669Z,101869.14
2022-12-14T19:42:23.611Z,101874.17
2022-12-14T19:43:25.575Z,101870.83
2022-12-14T19:44:27.573Z,101885.22
2022-12-14T19:45:29.586Z,101869.62
2022-12-14T19:46:31.540Z,101865.30
2022-12-14T19:47:33.501Z,101870.44
2022-12-14T19:48:35.331Z,101869.44
2022-12-14T19:49:37.163Z,101858.97
2022-12-14T19:50:39.249Z,101864.10
2022-12-14T19:51:42.104Z,101863.13
2022-12-14T19:52:43.970Z,101863.03
2022-12-14T19:53:45.798Z,101857.80
2022-12-14T19:54:47.609Z,101873.97